Taurus — WDB5562 — position and weather

sailwx.info

Track history (hours):
 
Tides and Currents Weather Stations Pressure Air Temp Water Temp Dewpoint Dewpoint Depression Visibility Wind Speed Wind Dir Waves Ship Positions

Taurus

Owner: Kirby Offshore Marine, LLC, Staten Island, NY. More information available from US FCC via Universal Licensing System and Coast Guard Vessel Documentation Center.

Last reported at 2016-Feb-10 21:06 UTC. Time now 2016-Feb-12 07:54 UTC.
Position N 40°43' W 073°58'.

Length 24 m.

Type: Ship (hazmat cat B). MMSI: 366910990.

Date/timePositionNaut miles runAvg speedWind from/ knotsBaromVisibWave heightAir tempDewpointWater temp
2016-Feb-10 21:06N 40°43' W 073°58'2 3.6
2016-Feb-10 20:33N 40°42' W 074°00'4 4.5
2016-Feb-10 19:33N 40°39' W 074°05'4 3.8
2016-Feb-10 18:32N 40°39' W 074°10'0 0.0
2016-Feb-10 17:32N 40°39' W 074°10'2 0.4
2016-Feb-10 12:10N 40°37' W 074°12'2 3.1
2016-Feb-10 11:29N 40°39' W 074°10'0 0.0
2016-Feb-10 10:33N 40°39' W 074°10'0 0.0
2016-Feb-10 09:33N 40°39' W 074°10'0 0.0
2016-Feb-10 08:33N 40°39' W 074°10'3 2.7
2016-Feb-10 07:22N 40°39' W 074°06'1 1.6
2016-Feb-10 06:33N 40°39' W 074°04'0 0.0
2016-Feb-10 05:33N 40°39' W 074°04'1 0.6
2016-Feb-10 04:33N 40°39' W 074°05'4 3.9
2016-Feb-10 03:33N 40°38' W 074°10'0 0.0
2016-Feb-10 02:29N 40°38' W 074°10'0 0.0
2016-Feb-10 01:33N 40°38' W 074°10'0 0.0
2016-Feb-09 23:16N 40°38' W 074°10'0 0.0
2016-Feb-09 22:21N 40°38' W 074°10'2 2.8
2016-Feb-09 21:29N 40°39' W 074°07'1 1.4
2016-Feb-09 20:33N 40°39' W 074°05'1 0.7
2016-Feb-09 19:33N 40°39' W 074°04'4 4.4
2016-Feb-09 18:33N 40°39' W 074°10'1 1.2
2016-Feb-09 17:33N 40°40' W 074°09'0 0.0
2016-Feb-09 16:33N 40°40' W 074°09'1 1.2
2016-Feb-09 15:32N 40°39' W 074°10'0 0.1
2016-Feb-09 14:33N 40°39' W 074°10'0 0.0
2016-Feb-09 13:33N 40°39' W 074°10'0 0.0
2016-Feb-09 12:32N 40°39' W 074°10'0 0.0
2016-Feb-09 11:20N 40°39' W 074°10'0 0.0
2016-Feb-09 10:31N 40°39' W 074°10'0 0.0
2016-Feb-09 09:33N 40°39' W 074°10'0 0.0
2016-Feb-09 08:33N 40°39' W 074°10'0 0.0
2016-Feb-09 07:33N 40°39' W 074°10'0 0.0
2016-Feb-09 06:33N 40°39' W 074°10'0 0.0
2016-Feb-09 05:33N 40°39' W 074°10'5 4.6
2016-Feb-09 04:33N 40°40' W 074°04'0 0.0
2016-Feb-09 03:33N 40°40' W 074°04'0 0.0
2016-Feb-09 02:33N 40°40' W 074°04'0 0.0
2016-Feb-09 01:33N 40°40' W 074°04'0 0.0
2016-Feb-09 00:33N 40°40' W 074°04'0 0.0
2016-Feb-08 23:33N 40°40' W 074°04'0 0.0
2016-Feb-08 22:34N 40°40' W 074°04'0 0.0
2016-Feb-08 21:33N 40°40' W 074°04'0 0.0
2016-Feb-08 20:33N 40°40' W 074°04'3 2.5
2016-Feb-08 19:32N 40°39' W 074°07'0 0.2
2016-Feb-08 18:33N 40°39' W 074°07'0 0.0
2016-Feb-08 17:33N 40°39' W 074°07'0 0.0
2016-Feb-08 16:31N 40°39' W 074°07'2 0.2
2016-Feb-08 04:19N 40°39' W 074°10'3 3.6
2016-Feb-08 03:33N 40°39' W 074°06'7 6.9
2016-Feb-08 02:34N 40°43' W 073°59'5 0.3
2016-Feb-07 12:13N 40°47' W 073°56'5 7.8
2016-Feb-07 11:33N 40°42' W 073°59'7 6.5
2016-Feb-07 10:33N 40°39' W 074°06'3 2.9
2016-Feb-07 09:33N 40°39' W 074°10'0 0.0
2016-Feb-07 08:33N 40°39' W 074°10'0 0.0
2016-Feb-07 07:33N 40°39' W 074°10'0 0.0
2016-Feb-07 06:33N 40°39' W 074°10'0 0.0
2016-Feb-07 05:33N 40°39' W 074°10'0 0.0
2016-Feb-07 04:33N 40°39' W 074°10'0 0.0
2016-Feb-07 03:33N 40°39' W 074°10'0 0.0
2016-Feb-07 02:33N 40°39' W 074°10'3 0.6
2016-Feb-06 21:08N 40°36' W 074°12'3 5.3
2016-Feb-06 20:33N 40°39' W 074°11'1 0.8
2016-Feb-06 19:13N 40°39' W 074°10'0 0.0
2016-Feb-06 18:33N 40°39' W 074°10'0 0.0
2016-Feb-06 17:33N 40°39' W 074°10'0 0.0
2016-Feb-06 16:33N 40°39' W 074°10'0 0.0
2016-Feb-06 15:33N 40°38' W 074°10'1 0.5
2016-Feb-06 14:33N 40°39' W 074°10'1 0.2
2016-Feb-06 06:33N 40°38' W 074°12'2 0.5
2016-Feb-06 03:23N 40°39' W 074°10'0 0.0
2016-Feb-06 02:15N 40°39' W 074°10'0 0.0
2016-Feb-06 01:33N 40°39' W 074°10'2 2.5
2016-Feb-06 00:33N 40°39' W 074°07'0 0.0
2016-Feb-05 23:30N 40°39' W 074°07'0 0.0
2016-Feb-05 22:32N 40°39' W 074°07'3 1.8
2016-Feb-05 21:07N 40°39' W 074°10'0 0.0
2016-Feb-05 14:31N 40°39' W 074°10'0 0.0
2016-Feb-05 13:33N 40°39' W 074°10'0 0.0
2016-Feb-05 12:34N 40°39' W 074°10'0 0.0
2016-Feb-05 11:05N 40°39' W 074°10'0 0.0
2016-Feb-05 10:32N 40°39' W 074°10'0 0.0
2016-Feb-05 09:33N 40°39' W 074°10'0 0.0
2016-Feb-05 08:33N 40°39' W 074°10'0 0.0
2016-Feb-05 07:33N 40°39' W 074°10'0 0.0
2016-Feb-05 06:34N 40°39' W 074°10'0 0.0
2016-Feb-05 05:33N 40°39' W 074°10'2 1.7
2016-Feb-05 04:34N 40°39' W 074°08'1 0.7
2016-Feb-05 03:19N 40°39' W 074°07'2 0.8
2016-Feb-05 00:34N 40°38' W 074°10'0 0.0
2016-Feb-04 23:34N 40°38' W 074°10'0 0.0
2016-Feb-04 22:34N 40°38' W 074°10'0 0.4
2016-Feb-04 21:33N 40°39' W 074°10'0 0.0
2016-Feb-04 18:33N 40°39' W 074°10'0 0.0
2016-Feb-04 16:34N 40°39' W 074°10'2 0.2
2016-Feb-04 04:33N 40°37' W 074°12'2 2.1
2016-Feb-04 03:34N 40°38' W 074°10'0 0.0
2016-Feb-04 02:34N 40°38' W 074°10'0 0.0
2016-Feb-04 01:33N 40°38' W 074°10'0 0.0
2016-Feb-04 00:34N 40°38' W 074°10'0 0.0
2016-Feb-03 23:33N 40°38' W 074°10'0 0.0
2016-Feb-03 22:33N 40°39' W 074°10'0 0.0
2016-Feb-03 21:34N 40°39' W 074°10'0 0.0
2016-Feb-03 20:34N 40°39' W 074°10'2 1.6
2016-Feb-03 19:34N 40°38' W 074°12'2 2.1
2016-Feb-03 18:27N 40°36' W 074°12'3 3.6
2016-Feb-03 17:34N 40°39' W 074°10'0 0.1
2016-Feb-03 16:33N 40°39' W 074°10'0 0.0
2016-Feb-03 15:32N 40°39' W 074°10'4 4.5
2016-Feb-03 14:33N 40°39' W 074°04'7 7.0
2016-Feb-03 13:33N 40°44' W 073°58'1 0.8
2016-Feb-03 12:27N 40°44' W 073°57'0 0.0
2016-Feb-03 10:33N 40°44' W 073°57'2 2.3
2016-Feb-03 09:34N 40°42' W 073°59'1 1.2
2016-Feb-03 08:33N 40°42' W 074°00'7 7.0
2016-Feb-03 07:33N 40°39' W 074°08'3 0.4
2016-Feb-02 23:33N 40°37' W 074°12'2 2.3
2016-Feb-02 22:33N 40°38' W 074°10'0 0.0
2016-Feb-02 21:29N 40°38' W 074°10'2 1.6
2016-Feb-02 20:32N 40°39' W 074°08'3 1.6
2016-Feb-02 18:24N 40°38' W 074°12'3 3.3
2016-Feb-02 17:33N 40°39' W 074°09'4 3.6
2016-Feb-02 16:33N 40°39' W 074°04'4 3.4
2016-Feb-02 15:30N 40°39' W 074°09'3 2.9
2016-Feb-02 14:33N 40°39' W 074°05'1 1.2
2016-Feb-02 13:33N 40°39' W 074°07'2 2.3
2016-Feb-02 12:30N 40°38' W 074°10'0 0.0
2016-Feb-02 11:33N 40°38' W 074°10'0 0.0
2016-Feb-02 10:33N 40°38' W 074°10'0 0.0
2016-Feb-02 09:33N 40°38' W 074°10'0 0.3
2016-Feb-02 08:33N 40°39' W 074°10'2 0.7
2016-Feb-02 05:23N 40°37' W 074°12'2 2.5
2016-Feb-02 04:33N 40°39' W 074°10'0 0.0
2016-Feb-02 03:33N 40°39' W 074°10'0 0.0
2016-Feb-02 02:32N 40°39' W 074°10'0 0.0
2016-Feb-02 01:27N 40°39' W 074°10'0 0.0
2016-Feb-02 00:33N 40°39' W 074°10'0 0.0
2016-Feb-01 23:32N 40°39' W 074°10'0 0.0
2016-Feb-01 22:33N 40°39' W 074°10'0 0.0
2016-Feb-01 21:23N 40°39' W 074°10'0 0.0
2016-Feb-01 20:33N 40°39' W 074°10'0 0.0
2016-Feb-01 19:33N 40°39' W 074°10'2 0.1
2016-Feb-01 01:05N 40°37' W 074°12'2 4.0
2016-Feb-01 00:33N 40°39' W 074°10'0 0.0
2016-Jan-31 23:33N 40°39' W 074°10'0 0.0
2016-Jan-31 22:33N 40°39' W 074°10'4 4.4
2016-Jan-31 21:33N 40°39' W 074°04'  
Track history (hours):
 
Tides and Currents Weather Stations Pressure Air Temp Water Temp Dewpoint Dewpoint Depression Visibility Wind Speed Wind Dir Waves Ship Positions

Taurus

Owner: Kirby Offshore Marine, LLC, Staten Island, NY. More information available from US FCC via Universal Licensing System and Coast Guard Vessel Documentation Center.

Last reported at 2016-Feb-10 21:06 UTC. Time now 2016-Feb-12 07:54 UTC.
Position N 40°43' W 073°58'.

Length 24 m.

Type: Ship (hazmat cat B). MMSI: 366910990.

Date/timePositionNaut miles runAvg speedWind from/ knotsBaromVisibWave heightAir tempDewpointWater temp
2016-Feb-10 21:06N 40°43' W 073°58'2 3.6
2016-Feb-10 20:33N 40°42' W 074°00'4 4.5
2016-Feb-10 19:33N 40°39' W 074°05'4 3.8
2016-Feb-10 18:32N 40°39' W 074°10'0 0.0
2016-Feb-10 17:32N 40°39' W 074°10'2 0.4
2016-Feb-10 12:10N 40°37' W 074°12'2 3.1
2016-Feb-10 11:29N 40°39' W 074°10'0 0.0
2016-Feb-10 10:33N 40°39' W 074°10'0 0.0
2016-Feb-10 09:33N 40°39' W 074°10'0 0.0
2016-Feb-10 08:33N 40°39' W 074°10'3 2.7
2016-Feb-10 07:22N 40°39' W 074°06'1 1.6
2016-Feb-10 06:33N 40°39' W 074°04'0 0.0
2016-Feb-10 05:33N 40°39' W 074°04'1 0.6
2016-Feb-10 04:33N 40°39' W 074°05'4 3.9
2016-Feb-10 03:33N 40°38' W 074°10'0 0.0
2016-Feb-10 02:29N 40°38' W 074°10'0 0.0
2016-Feb-10 01:33N 40°38' W 074°10'0 0.0
2016-Feb-09 23:16N 40°38' W 074°10'0 0.0
2016-Feb-09 22:21N 40°38' W 074°10'2 2.8
2016-Feb-09 21:29N 40°39' W 074°07'1 1.4
2016-Feb-09 20:33N 40°39' W 074°05'1 0.7
2016-Feb-09 19:33N 40°39' W 074°04'4 4.4
2016-Feb-09 18:33N 40°39' W 074°10'1 1.2
2016-Feb-09 17:33N 40°40' W 074°09'0 0.0
2016-Feb-09 16:33N 40°40' W 074°09'1 1.2
2016-Feb-09 15:32N 40°39' W 074°10'0 0.1
2016-Feb-09 14:33N 40°39' W 074°10'0 0.0
2016-Feb-09 13:33N 40°39' W 074°10'0 0.0
2016-Feb-09 12:32N 40°39' W 074°10'0 0.0
2016-Feb-09 11:20N 40°39' W 074°10'0 0.0
2016-Feb-09 10:31N 40°39' W 074°10'0 0.0
2016-Feb-09 09:33N 40°39' W 074°10'0 0.0
2016-Feb-09 08:33N 40°39' W 074°10'0 0.0
2016-Feb-09 07:33N 40°39' W 074°10'0 0.0
2016-Feb-09 06:33N 40°39' W 074°10'0 0.0
2016-Feb-09 05:33N 40°39' W 074°10'5 4.6
2016-Feb-09 04:33N 40°40' W 074°04'0 0.0
2016-Feb-09 03:33N 40°40' W 074°04'0 0.0
2016-Feb-09 02:33N 40°40' W 074°04'0 0.0
2016-Feb-09 01:33N 40°40' W 074°04'0 0.0
2016-Feb-09 00:33N 40°40' W 074°04'0 0.0
2016-Feb-08 23:33N 40°40' W 074°04'0 0.0
2016-Feb-08 22:34N 40°40' W 074°04'0 0.0
2016-Feb-08 21:33N 40°40' W 074°04'0 0.0
2016-Feb-08 20:33N 40°40' W 074°04'3 2.5
2016-Feb-08 19:32N 40°39' W 074°07'0 0.2
2016-Feb-08 18:33N 40°39' W 074°07'0 0.0
2016-Feb-08 17:33N 40°39' W 074°07'0 0.0
2016-Feb-08 16:31N 40°39' W 074°07'2 0.2
2016-Feb-08 04:19N 40°39' W 074°10'3 3.6
2016-Feb-08 03:33N 40°39' W 074°06'7 6.9
2016-Feb-08 02:34N 40°43' W 073°59'5 0.3
2016-Feb-07 12:13N 40°47' W 073°56'5 7.8
2016-Feb-07 11:33N 40°42' W 073°59'7 6.5
2016-Feb-07 10:33N 40°39' W 074°06'3 2.9
2016-Feb-07 09:33N 40°39' W 074°10'0 0.0
2016-Feb-07 08:33N 40°39' W 074°10'0 0.0
2016-Feb-07 07:33N 40°39' W 074°10'0 0.0
2016-Feb-07 06:33N 40°39' W 074°10'0 0.0
2016-Feb-07 05:33N 40°39' W 074°10'0 0.0
2016-Feb-07 04:33N 40°39' W 074°10'0 0.0
2016-Feb-07 03:33N 40°39' W 074°10'0 0.0
2016-Feb-07 02:33N 40°39' W 074°10'3 0.6
2016-Feb-06 21:08N 40°36' W 074°12'3 5.3
2016-Feb-06 20:33N 40°39' W 074°11'1 0.8
2016-Feb-06 19:13N 40°39' W 074°10'0 0.0
2016-Feb-06 18:33N 40°39' W 074°10'0 0.0
2016-Feb-06 17:33N 40°39' W 074°10'0 0.0
2016-Feb-06 16:33N 40°39' W 074°10'0 0.0
2016-Feb-06 15:33N 40°38' W 074°10'1 0.5
2016-Feb-06 14:33N 40°39' W 074°10'1 0.2
2016-Feb-06 06:33N 40°38' W 074°12'2 0.5
2016-Feb-06 03:23N 40°39' W 074°10'0 0.0
2016-Feb-06 02:15N 40°39' W 074°10'0 0.0
2016-Feb-06 01:33N 40°39' W 074°10'2 2.5
2016-Feb-06 00:33N 40°39' W 074°07'0 0.0
2016-Feb-05 23:30N 40°39' W 074°07'0 0.0
2016-Feb-05 22:32N 40°39' W 074°07'3 1.8
2016-Feb-05 21:07N 40°39' W 074°10'0 0.0
2016-Feb-05 14:31N 40°39' W 074°10'0 0.0
2016-Feb-05 13:33N 40°39' W 074°10'0 0.0
2016-Feb-05 12:34N 40°39' W 074°10'0 0.0
2016-Feb-05 11:05N 40°39' W 074°10'0 0.0
2016-Feb-05 10:32N 40°39' W 074°10'0 0.0
2016-Feb-05 09:33N 40°39' W 074°10'0 0.0
2016-Feb-05 08:33N 40°39' W 074°10'0 0.0
2016-Feb-05 07:33N 40°39' W 074°10'0 0.0
2016-Feb-05 06:34N 40°39' W 074°10'0 0.0
2016-Feb-05 05:33N 40°39' W 074°10'2 1.7
2016-Feb-05 04:34N 40°39' W 074°08'1 0.7
2016-Feb-05 03:19N 40°39' W 074°07'2 0.8
2016-Feb-05 00:34N 40°38' W 074°10'0 0.0
2016-Feb-04 23:34N 40°38' W 074°10'0 0.0
2016-Feb-04 22:34N 40°38' W 074°10'0 0.4
2016-Feb-04 21:33N 40°39' W 074°10'0 0.0
2016-Feb-04 18:33N 40°39' W 074°10'0 0.0
2016-Feb-04 16:34N 40°39' W 074°10'2 0.2
2016-Feb-04 04:33N 40°37' W 074°12'2 2.1
2016-Feb-04 03:34N 40°38' W 074°10'0 0.0
2016-Feb-04 02:34N 40°38' W 074°10'0 0.0
2016-Feb-04 01:33N 40°38' W 074°10'0 0.0
2016-Feb-04 00:34N 40°38' W 074°10'0 0.0
2016-Feb-03 23:33N 40°38' W 074°10'0 0.0
2016-Feb-03 22:33N 40°39' W 074°10'0 0.0
2016-Feb-03 21:34N 40°39' W 074°10'0 0.0
2016-Feb-03 20:34N 40°39' W 074°10'2 1.6
2016-Feb-03 19:34N 40°38' W 074°12'2 2.1
2016-Feb-03 18:27N 40°36' W 074°12'3 3.6
2016-Feb-03 17:34N 40°39' W 074°10'0 0.1
2016-Feb-03 16:33N 40°39' W 074°10'0 0.0
2016-Feb-03 15:32N 40°39' W 074°10'4 4.5
2016-Feb-03 14:33N 40°39' W 074°04'7 7.0
2016-Feb-03 13:33N 40°44' W 073°58'1 0.8
2016-Feb-03 12:27N 40°44' W 073°57'0 0.0
2016-Feb-03 10:33N 40°44' W 073°57'2 2.3
2016-Feb-03 09:34N 40°42' W 073°59'1 1.2
2016-Feb-03 08:33N 40°42' W 074°00'7 7.0
2016-Feb-03 07:33N 40°39' W 074°08'3 0.4
2016-Feb-02 23:33N 40°37' W 074°12'2 2.3
2016-Feb-02 22:33N 40°38' W 074°10'0 0.0
2016-Feb-02 21:29N 40°38' W 074°10'2 1.6
2016-Feb-02 20:32N 40°39' W 074°08'3 1.6
2016-Feb-02 18:24N 40°38' W 074°12'3 3.3
2016-Feb-02 17:33N 40°39' W 074°09'4 3.6
2016-Feb-02 16:33N 40°39' W 074°04'4 3.4
2016-Feb-02 15:30N 40°39' W 074°09'3 2.9
2016-Feb-02 14:33N 40°39' W 074°05'1 1.2
2016-Feb-02 13:33N 40°39' W 074°07'2 2.3
2016-Feb-02 12:30N 40°38' W 074°10'0 0.0
2016-Feb-02 11:33N 40°38' W 074°10'0 0.0
2016-Feb-02 10:33N 40°38' W 074°10'0 0.0
2016-Feb-02 09:33N 40°38' W 074°10'0 0.3
2016-Feb-02 08:33N 40°39' W 074°10'2 0.7
2016-Feb-02 05:23N 40°37' W 074°12'2 2.5
2016-Feb-02 04:33N 40°39' W 074°10'0 0.0
2016-Feb-02 03:33N 40°39' W 074°10'0 0.0
2016-Feb-02 02:32N 40°39' W 074°10'0 0.0
2016-Feb-02 01:27N 40°39' W 074°10'0 0.0
2016-Feb-02 00:33N 40°39' W 074°10'0 0.0
2016-Feb-01 23:32N 40°39' W 074°10'0 0.0
2016-Feb-01 22:33N 40°39' W 074°10'0 0.0
2016-Feb-01 21:23N 40°39' W 074°10'0 0.0
2016-Feb-01 20:33N 40°39' W 074°10'0 0.0
2016-Feb-01 19:33N 40°39' W 074°10'2 0.1
2016-Feb-01 01:05N 40°37' W 074°12'2 4.0
2016-Feb-01 00:33N 40°39' W 074°10'0 0.0
2016-Jan-31 23:33N 40°39' W 074°10'0 0.0
2016-Jan-31 22:33N 40°39' W 074°10'4 4.4
2016-Jan-31 21:33N 40°39' W 074°04'  

Dump ship's entire track history